sensor_id;sensor_type;location;lat;lon;timestamp;P1;durP1;ratioP1;P2;durP2;ratioP2
4827;SDS011;2428;48.732;9.148;2023-09-07T00:01:29;3.60;;;3.10;;
4827;SDS011;2428;48.732;9.148;2023-09-07T00:03:56;4.03;;;3.33;;
4827;SDS011;2428;48.732;9.148;2023-09-07T00:06:22;4.83;;;2.90;;
4827;SDS011;2428;48.732;9.148;2023-09-07T00:08:47;5.07;;;3.40;;
4827;SDS011;2428;48.732;9.148;2023-09-07T00:11:13;3.80;;;3.43;;
4827;SDS011;2428;48.732;9.148;2023-09-07T00:13:38;6.00;;;3.20;;
4827;SDS011;2428;48.732;9.148;2023-09-07T00:16:04;3.97;;;3.53;;
4827;SDS011;2428;48.732;9.148;2023-09-07T00:18:31;2.70;;;2.47;;
4827;SDS011;2428;48.732;9.148;2023-09-07T00:20:58;5.47;;;3.73;;
4827;SDS011;2428;48.732;9.148;2023-09-07T00:23:24;4.77;;;3.40;;
4827;SDS011;2428;48.732;9.148;2023-09-07T00:25:50;4.23;;;3.17;;
4827;SDS011;2428;48.732;9.148;2023-09-07T00:28:15;4.03;;;3.20;;
4827;SDS011;2428;48.732;9.148;2023-09-07T00:30:41;2.60;;;2.40;;
4827;SDS011;2428;48.732;9.148;2023-09-07T00:33:07;4.07;;;3.70;;
4827;SDS011;2428;48.732;9.148;2023-09-07T00:35:33;3.10;;;2.50;;
4827;SDS011;2428;48.732;9.148;2023-09-07T00:37:59;5.37;;;3.07;;
4827;SDS011;2428;48.732;9.148;2023-09-07T00:40:25;3.40;;;3.10;;
4827;SDS011;2428;48.732;9.148;2023-09-07T00:42:51;4.17;;;2.80;;
4827;SDS011;2428;48.732;9.148;2023-09-07T00:45:17;2.40;;;2.20;;
4827;SDS011;2428;48.732;9.148;2023-09-07T00:47:43;2.70;;;2.50;;
4827;SDS011;2428;48.732;9.148;2023-09-07T00:50:09;4.23;;;2.97;;
4827;SDS011;2428;48.732;9.148;2023-09-07T00:52:39;3.70;;;2.60;;
4827;SDS011;2428;48.732;9.148;2023-09-07T00:55:08;4.00;;;2.90;;
4827;SDS011;2428;48.732;9.148;2023-09-07T00:57:34;3.67;;;3.30;;
4827;SDS011;2428;48.732;9.148;2023-09-07T01:00:01;3.13;;;2.80;;
4827;SDS011;2428;48.732;9.148;2023-09-07T01:02:28;4.40;;;3.40;;
4827;SDS011;2428;48.732;9.148;2023-09-07T01:04:54;3.90;;;3.20;;
4827;SDS011;2428;48.732;9.148;2023-09-07T01:07:20;5.40;;;3.40;;
4827;SDS011;2428;48.732;9.148;2023-09-07T01:09:51;4.70;;;3.87;;
4827;SDS011;2428;48.732;9.148;2023-09-07T01:12:24;4.50;;;4.10;;
4827;SDS011;2428;48.732;9.148;2023-09-07T01:14:49;4.47;;;3.80;;
4827;SDS011;2428;48.732;9.148;2023-09-07T01:17:15;5.30;;;3.33;;
4827;SDS011;2428;48.732;9.148;2023-09-07T01:19:41;4.20;;;3.40;;
4827;SDS011;2428;48.732;9.148;2023-09-07T01:22:09;5.33;;;3.40;;
4827;SDS011;2428;48.732;9.148;2023-09-07T01:24:37;4.17;;;3.77;;
4827;SDS011;2428;48.732;9.148;2023-09-07T01:27:04;5.70;;;3.53;;
4827;SDS011;2428;48.732;9.148;2023-09-07T01:29:30;3.50;;;3.20;;
4827;SDS011;2428;48.732;9.148;2023-09-07T01:31:56;3.00;;;2.80;;
4827;SDS011;2428;48.732;9.148;2023-09-07T01:34:23;4.67;;;3.60;;
4827;SDS011;2428;48.732;9.148;2023-09-07T01:36:49;4.43;;;3.53;;
4827;SDS011;2428;48.732;9.148;2023-09-07T01:39:15;3.70;;;3.30;;
4827;SDS011;2428;48.732;9.148;2023-09-07T01:41:41;3.60;;;3.30;;
4827;SDS011;2428;48.732;9.148;2023-09-07T01:44:07;5.27;;;3.80;;
4827;SDS011;2428;48.732;9.148;2023-09-07T01:46:33;3.20;;;2.90;;
4827;SDS011;2428;48.732;9.148;2023-09-07T01:49:00;3.73;;;3.40;;
4827;SDS011;2428;48.732;9.148;2023-09-07T01:51:26;3.63;;;3.33;;
4827;SDS011;2428;48.732;9.148;2023-09-07T01:53:52;3.93;;;3.17;;
4827;SDS011;2428;48.732;9.148;2023-09-07T01:56:18;3.20;;;2.90;;
4827;SDS011;2428;48.732;9.148;2023-09-07T01:58:44;3.73;;;2.97;;
4827;SDS011;2428;48.732;9.148;2023-09-07T02:01:26;3.10;;;2.80;;
4827;SDS011;2428;48.732;9.148;2023-09-07T02:03:55;3.50;;;2.83;;
4827;SDS011;2428;48.732;9.148;2023-09-07T02:06:20;3.30;;;3.00;;
4827;SDS011;2428;48.732;9.148;2023-09-07T02:08:46;4.47;;;3.90;;
4827;SDS011;2428;48.732;9.148;2023-09-07T02:11:12;5.03;;;4.00;;
4827;SDS011;2428;48.732;9.148;2023-09-07T02:13:37;3.87;;;3.30;;
4827;SDS011;2428;48.732;9.148;2023-09-07T02:16:06;2.97;;;2.67;;
4827;SDS011;2428;48.732;9.148;2023-09-07T02:18:32;3.57;;;2.97;;
4827;SDS011;2428;48.732;9.148;2023-09-07T02:21:02;3.63;;;3.33;;
4827;SDS011;2428;48.732;9.148;2023-09-07T02:23:28;4.60;;;3.30;;
4827;SDS011;2428;48.732;9.148;2023-09-07T02:25:54;3.47;;;3.17;;
4827;SDS011;2428;48.732;9.148;2023-09-07T02:28:20;5.47;;;3.13;;
4827;SDS011;2428;48.732;9.148;2023-09-07T02:30:45;3.57;;;3.27;;
4827;SDS011;2428;48.732;9.148;2023-09-07T02:33:11;4.10;;;3.67;;
4827;SDS011;2428;48.732;9.148;2023-09-07T02:35:37;3.27;;;2.30;;
4827;SDS011;2428;48.732;9.148;2023-09-07T02:38:02;4.07;;;3.10;;
4827;SDS011;2428;48.732;9.148;2023-09-07T02:40:28;2.33;;;2.20;;
4827;SDS011;2428;48.732;9.148;2023-09-07T02:42:53;4.90;;;3.20;;
4827;SDS011;2428;48.732;9.148;2023-09-07T02:45:19;3.53;;;3.23;;
4827;SDS011;2428;48.732;9.148;2023-09-07T02:47:45;2.93;;;2.60;;
4827;SDS011;2428;48.732;9.148;2023-09-07T02:50:11;4.00;;;3.00;;
4827;SDS011;2428;48.732;9.148;2023-09-07T02:52:39;4.60;;;3.40;;
4827;SDS011;2428;48.732;9.148;2023-09-07T02:55:05;3.37;;;2.90;;
4827;SDS011;2428;48.732;9.148;2023-09-07T02:57:31;3.17;;;2.40;;
4827;SDS011;2428;48.732;9.148;2023-09-07T02:59:57;3.57;;;2.90;;
4827;SDS011;2428;48.732;9.148;2023-09-07T03:02:22;2.93;;;2.73;;
4827;SDS011;2428;48.732;9.148;2023-09-07T03:04:52;3.87;;;3.00;;
4827;SDS011;2428;48.732;9.148;2023-09-07T03:07:18;3.57;;;2.63;;
4827;SDS011;2428;48.732;9.148;2023-09-07T03:09:44;2.87;;;2.53;;
4827;SDS011;2428;48.732;9.148;2023-09-07T03:12:10;2.60;;;2.10;;
4827;SDS011;2428;48.732;9.148;2023-09-07T03:14:35;5.00;;;3.17;;
4827;SDS011;2428;48.732;9.148;2023-09-07T03:17:01;2.77;;;2.57;;
4827;SDS011;2428;48.732;9.148;2023-09-07T03:19:28;4.13;;;3.33;;
4827;SDS011;2428;48.732;9.148;2023-09-07T03:21:54;4.00;;;2.70;;
4827;SDS011;2428;48.732;9.148;2023-09-07T03:24:19;4.00;;;2.33;;
4827;SDS011;2428;48.732;9.148;2023-09-07T03:26:45;4.13;;;3.07;;
4827;SDS011;2428;48.732;9.148;2023-09-07T03:29:11;5.43;;;4.23;;
4827;SDS011;2428;48.732;9.148;2023-09-07T03:31:36;10.47;;;2.80;;
4827;SDS011;2428;48.732;9.148;2023-09-07T03:34:02;3.57;;;3.27;;
4827;SDS011;2428;48.732;9.148;2023-09-07T03:36:27;4.47;;;3.13;;
4827;SDS011;2428;48.732;9.148;2023-09-07T03:38:53;3.70;;;3.20;;
4827;SDS011;2428;48.732;9.148;2023-09-07T03:41:18;4.07;;;3.30;;
4827;SDS011;2428;48.732;9.148;2023-09-07T03:43:44;2.97;;;2.70;;
4827;SDS011;2428;48.732;9.148;2023-09-07T03:46:10;3.57;;;2.80;;
4827;SDS011;2428;48.732;9.148;2023-09-07T03:48:35;3.33;;;3.03;;
4827;SDS011;2428;48.732;9.148;2023-09-07T03:51:04;3.80;;;3.30;;
4827;SDS011;2428;48.732;9.148;2023-09-07T03:53:31;3.70;;;3.40;;
4827;SDS011;2428;48.732;9.148;2023-09-07T03:55:56;3.67;;;3.37;;
4827;SDS011;2428;48.732;9.148;2023-09-07T03:58:22;3.93;;;3.30;;
4827;SDS011;2428;48.732;9.148;2023-09-07T04:00:47;3.47;;;3.13;;
4827;SDS011;2428;48.732;9.148;2023-09-07T04:03:14;2.93;;;2.67;;
4827;SDS011;2428;48.732;9.148;2023-09-07T04:05:40;4.00;;;3.00;;
4827;SDS011;2428;48.732;9.148;2023-09-07T04:08:06;3.80;;;3.03;;
4827;SDS011;2428;48.732;9.148;2023-09-07T04:10:32;4.00;;;3.30;;
4827;SDS011;2428;48.732;9.148;2023-09-07T04:13:01;3.70;;;2.87;;
4827;SDS011;2428;48.732;9.148;2023-09-07T04:15:27;3.23;;;2.90;;
4827;SDS011;2428;48.732;9.148;2023-09-07T04:17:52;3.10;;;2.80;;
4827;SDS011;2428;48.732;9.148;2023-09-07T04:20:19;3.93;;;3.47;;
4827;SDS011;2428;48.732;9.148;2023-09-07T04:22:46;3.30;;;2.87;;
4827;SDS011;2428;48.732;9.148;2023-09-07T04:25:12;2.90;;;2.70;;
4827;SDS011;2428;48.732;9.148;2023-09-07T04:27:37;4.83;;;3.23;;
4827;SDS011;2428;48.732;9.148;2023-09-07T04:30:03;3.33;;;2.80;;
4827;SDS011;2428;48.732;9.148;2023-09-07T04:32:29;2.90;;;2.53;;
4827;SDS011;2428;48.732;9.148;2023-09-07T04:34:55;4.50;;;3.53;;
4827;SDS011;2428;48.732;9.148;2023-09-07T04:37:22;3.60;;;2.97;;
4827;SDS011;2428;48.732;9.148;2023-09-07T04:39:51;4.97;;;3.53;;
4827;SDS011;2428;48.732;9.148;2023-09-07T04:42:20;4.20;;;3.20;;
4827;SDS011;2428;48.732;9.148;2023-09-07T04:44:46;4.63;;;2.90;;
4827;SDS011;2428;48.732;9.148;2023-09-07T04:47:12;4.20;;;3.07;;
4827;SDS011;2428;48.732;9.148;2023-09-07T04:49:39;5.50;;;3.73;;
4827;SDS011;2428;48.732;9.148;2023-09-07T04:52:05;5.70;;;4.57;;
4827;SDS011;2428;48.732;9.148;2023-09-07T04:54:30;7.77;;;4.30;;
4827;SDS011;2428;48.732;9.148;2023-09-07T04:56:56;5.97;;;3.70;;
4827;SDS011;2428;48.732;9.148;2023-09-07T04:59:21;5.40;;;3.97;;
4827;SDS011;2428;48.732;9.148;2023-09-07T05:01:47;6.17;;;4.20;;
4827;SDS011;2428;48.732;9.148;2023-09-07T05:04:12;6.67;;;3.37;;
4827;SDS011;2428;48.732;9.148;2023-09-07T05:06:38;4.17;;;3.77;;
4827;SDS011;2428;48.732;9.148;2023-09-07T05:09:05;3.80;;;3.30;;
4827;SDS011;2428;48.732;9.148;2023-09-07T05:11:31;4.87;;;3.33;;
4827;SDS011;2428;48.732;9.148;2023-09-07T05:13:59;4.57;;;3.47;;
4827;SDS011;2428;48.732;9.148;2023-09-07T05:16:26;4.70;;;3.10;;
4827;SDS011;2428;48.732;9.148;2023-09-07T05:18:51;4.30;;;3.20;;
4827;SDS011;2428;48.732;9.148;2023-09-07T05:21:17;4.00;;;3.27;;
4827;SDS011;2428;48.732;9.148;2023-09-07T05:23:43;3.63;;;3.00;;
4827;SDS011;2428;48.732;9.148;2023-09-07T05:26:11;4.23;;;3.30;;
4827;SDS011;2428;48.732;9.148;2023-09-07T05:28:36;3.70;;;3.20;;
4827;SDS011;2428;48.732;9.148;2023-09-07T05:31:04;3.70;;;3.17;;
4827;SDS011;2428;48.732;9.148;2023-09-07T05:33:30;3.60;;;2.73;;
4827;SDS011;2428;48.732;9.148;2023-09-07T05:35:55;5.07;;;3.40;;
4827;SDS011;2428;48.732;9.148;2023-09-07T05:38:21;6.30;;;3.47;;
4827;SDS011;2428;48.732;9.148;2023-09-07T05:40:46;4.10;;;3.53;;
4827;SDS011;2428;48.732;9.148;2023-09-07T05:43:15;4.30;;;3.03;;
4827;SDS011;2428;48.732;9.148;2023-09-07T05:45:40;5.37;;;3.73;;
4827;SDS011;2428;48.732;9.148;2023-09-07T05:48:07;5.83;;;4.13;;
4827;SDS011;2428;48.732;9.148;2023-09-07T05:50:34;4.60;;;3.90;;
4827;SDS011;2428;48.732;9.148;2023-09-07T05:53:00;6.33;;;3.30;;
4827;SDS011;2428;48.732;9.148;2023-09-07T05:55:26;4.60;;;3.10;;
4827;SDS011;2428;48.732;9.148;2023-09-07T05:57:54;3.63;;;3.20;;
4827;SDS011;2428;48.732;9.148;2023-09-07T06:00:20;5.20;;;4.10;;
4827;SDS011;2428;48.732;9.148;2023-09-07T06:02:46;6.47;;;4.20;;
4827;SDS011;2428;48.732;9.148;2023-09-07T06:05:12;5.33;;;3.10;;
4827;SDS011;2428;48.732;9.148;2023-09-07T06:07:38;6.23;;;5.50;;
4827;SDS011;2428;48.732;9.148;2023-09-07T06:10:03;6.10;;;4.77;;
4827;SDS011;2428;48.732;9.148;2023-09-07T06:12:30;6.27;;;4.80;;
4827;SDS011;2428;48.732;9.148;2023-09-07T06:14:56;9.60;;;5.63;;
4827;SDS011;2428;48.732;9.148;2023-09-07T06:17:22;6.67;;;5.40;;
4827;SDS011;2428;48.732;9.148;2023-09-07T06:19:47;5.80;;;4.73;;
4827;SDS011;2428;48.732;9.148;2023-09-07T06:22:13;5.87;;;4.70;;
4827;SDS011;2428;48.732;9.148;2023-09-07T06:24:38;7.87;;;5.70;;
4827;SDS011;2428;48.732;9.148;2023-09-07T06:27:04;7.77;;;5.60;;
4827;SDS011;2428;48.732;9.148;2023-09-07T06:29:30;8.47;;;4.87;;
4827;SDS011;2428;48.732;9.148;2023-09-07T06:31:55;6.00;;;4.73;;
4827;SDS011;2428;48.732;9.148;2023-09-07T06:34:21;5.50;;;4.30;;
4827;SDS011;2428;48.732;9.148;2023-09-07T06:36:46;5.70;;;4.43;;
4827;SDS011;2428;48.732;9.148;2023-09-07T06:39:12;10.50;;;5.67;;
4827;SDS011;2428;48.732;9.148;2023-09-07T06:41:37;3.93;;;3.53;;
4827;SDS011;2428;48.732;9.148;2023-09-07T06:44:03;7.00;;;4.00;;
4827;SDS011;2428;48.732;9.148;2023-09-07T06:46:29;5.53;;;4.97;;
4827;SDS011;2428;48.732;9.148;2023-09-07T06:48:54;5.07;;;3.90;;
4827;SDS011;2428;48.732;9.148;2023-09-07T06:51:20;5.80;;;4.80;;
4827;SDS011;2428;48.732;9.148;2023-09-07T06:53:45;5.27;;;3.80;;
4827;SDS011;2428;48.732;9.148;2023-09-07T06:56:12;4.60;;;3.83;;
4827;SDS011;2428;48.732;9.148;2023-09-07T06:58:37;4.77;;;3.80;;
4827;SDS011;2428;48.732;9.148;2023-09-07T07:01:03;4.77;;;3.90;;
4827;SDS011;2428;48.732;9.148;2023-09-07T07:03:29;7.40;;;5.10;;
4827;SDS011;2428;48.732;9.148;2023-09-07T07:05:55;4.10;;;3.43;;
4827;SDS011;2428;48.732;9.148;2023-09-07T07:08:22;3.93;;;3.53;;
4827;SDS011;2428;48.732;9.148;2023-09-07T07:10:48;4.73;;;4.03;;
4827;SDS011;2428;48.732;9.148;2023-09-07T07:13:14;5.80;;;4.80;;
4827;SDS011;2428;48.732;9.148;2023-09-07T07:15:39;5.83;;;4.80;;
4827;SDS011;2428;48.732;9.148;2023-09-07T07:18:06;5.00;;;4.33;;
4827;SDS011;2428;48.732;9.148;2023-09-07T07:20:37;5.57;;;3.73;;
4827;SDS011;2428;48.732;9.148;2023-09-07T07:23:05;10.10;;;4.80;;
4827;SDS011;2428;48.732;9.148;2023-09-07T07:25:34;5.67;;;4.47;;
4827;SDS011;2428;48.732;9.148;2023-09-07T07:28:00;5.30;;;4.23;;
4827;SDS011;2428;48.732;9.148;2023-09-07T07:30:28;5.53;;;4.47;;
4827;SDS011;2428;48.732;9.148;2023-09-07T07:32:56;5.77;;;4.30;;
4827;SDS011;2428;48.732;9.148;2023-09-07T07:35:22;5.43;;;4.37;;
4827;SDS011;2428;48.732;9.148;2023-09-07T07:37:48;6.30;;;5.13;;
4827;SDS011;2428;48.732;9.148;2023-09-07T07:40:17;4.30;;;3.90;;
4827;SDS011;2428;48.732;9.148;2023-09-07T07:42:43;7.03;;;4.73;;
4827;SDS011;2428;48.732;9.148;2023-09-07T07:45:09;6.07;;;5.07;;
4827;SDS011;2428;48.732;9.148;2023-09-07T07:47:35;5.63;;;4.57;;
4827;SDS011;2428;48.732;9.148;2023-09-07T07:50:00;5.70;;;5.07;;
4827;SDS011;2428;48.732;9.148;2023-09-07T07:52:26;5.07;;;4.37;;
4827;SDS011;2428;48.732;9.148;2023-09-07T07:54:53;5.10;;;4.53;;
4827;SDS011;2428;48.732;9.148;2023-09-07T07:57:18;8.53;;;5.27;;
4827;SDS011;2428;48.732;9.148;2023-09-07T07:59:44;4.73;;;4.10;;
4827;SDS011;2428;48.732;9.148;2023-09-07T08:02:09;6.10;;;4.53;;
4827;SDS011;2428;48.732;9.148;2023-09-07T08:04:35;4.70;;;4.20;;
4827;SDS011;2428;48.732;9.148;2023-09-07T08:07:01;5.27;;;4.20;;
4827;SDS011;2428;48.732;9.148;2023-09-07T08:09:30;8.33;;;4.67;;
4827;SDS011;2428;48.732;9.148;2023-09-07T08:11:56;5.03;;;3.80;;
4827;SDS011;2428;48.732;9.148;2023-09-07T08:14:22;5.63;;;4.67;;
4827;SDS011;2428;48.732;9.148;2023-09-07T08:16:49;6.90;;;5.30;;
4827;SDS011;2428;48.732;9.148;2023-09-07T08:19:15;5.30;;;4.40;;
4827;SDS011;2428;48.732;9.148;2023-09-07T08:21:41;6.73;;;4.80;;
4827;SDS011;2428;48.732;9.148;2023-09-07T08:24:07;9.17;;;5.33;;
4827;SDS011;2428;48.732;9.148;2023-09-07T08:26:33;8.40;;;4.83;;
4827;SDS011;2428;48.732;9.148;2023-09-07T08:29:00;5.60;;;4.37;;
4827;SDS011;2428;48.732;9.148;2023-09-07T08:31:30;5.67;;;4.97;;
4827;SDS011;2428;48.732;9.148;2023-09-07T08:33:56;4.33;;;3.93;;
4827;SDS011;2428;48.732;9.148;2023-09-07T08:36:22;6.20;;;4.10;;
4827;SDS011;2428;48.732;9.148;2023-09-07T08:38:50;6.83;;;4.77;;
4827;SDS011;2428;48.732;9.148;2023-09-07T08:41:18;5.10;;;3.93;;
4827;SDS011;2428;48.732;9.148;2023-09-07T08:43:46;6.50;;;4.47;;
4827;SDS011;2428;48.732;9.148;2023-09-07T08:46:15;5.17;;;4.40;;
4827;SDS011;2428;48.732;9.148;2023-09-07T08:48:45;6.80;;;4.70;;
4827;SDS011;2428;48.732;9.148;2023-09-07T08:51:12;4.70;;;4.17;;
4827;SDS011;2428;48.732;9.148;2023-09-07T08:53:39;4.90;;;4.40;;
4827;SDS011;2428;48.732;9.148;2023-09-07T08:56:06;5.80;;;5.20;;
4827;SDS011;2428;48.732;9.148;2023-09-07T08:58:36;7.10;;;5.00;;
4827;SDS011;2428;48.732;9.148;2023-09-07T09:01:01;6.37;;;5.10;;
4827;SDS011;2428;48.732;9.148;2023-09-07T09:03:28;4.87;;;4.20;;
4827;SDS011;2428;48.732;9.148;2023-09-07T09:05:55;6.10;;;4.33;;
4827;SDS011;2428;48.732;9.148;2023-09-07T09:08:21;6.00;;;5.30;;
4827;SDS011;2428;48.732;9.148;2023-09-07T09:10:49;4.80;;;4.30;;
4827;SDS011;2428;48.732;9.148;2023-09-07T09:13:31;4.13;;;3.77;;
4827;SDS011;2428;48.732;9.148;2023-09-07T09:16:00;6.00;;;4.50;;
4827;SDS011;2428;48.732;9.148;2023-09-07T09:18:27;4.77;;;4.27;;
4827;SDS011;2428;48.732;9.148;2023-09-07T09:20:55;4.33;;;3.73;;
4827;SDS011;2428;48.732;9.148;2023-09-07T09:23:23;5.10;;;4.60;;
4827;SDS011;2428;48.732;9.148;2023-09-07T09:25:50;5.50;;;4.23;;
4827;SDS011;2428;48.732;9.148;2023-09-07T09:28:16;4.80;;;4.30;;
4827;SDS011;2428;48.732;9.148;2023-09-07T09:30:41;6.13;;;5.20;;
4827;SDS011;2428;48.732;9.148;2023-09-07T09:33:10;7.40;;;5.07;;
4827;SDS011;2428;48.732;9.148;2023-09-07T09:35:37;5.00;;;4.40;;
4827;SDS011;2428;48.732;9.148;2023-09-07T09:38:03;5.67;;;4.27;;
4827;SDS011;2428;48.732;9.148;2023-09-07T09:40:30;4.83;;;4.33;;
4827;SDS011;2428;48.732;9.148;2023-09-07T09:42:56;4.60;;;4.10;;
4827;SDS011;2428;48.732;9.148;2023-09-07T09:45:24;6.43;;;4.80;;
4827;SDS011;2428;48.732;9.148;2023-09-07T09:47:53;5.07;;;4.57;;
4827;SDS011;2428;48.732;9.148;2023-09-07T09:50:21;5.90;;;5.30;;
4827;SDS011;2428;48.732;9.148;2023-09-07T09:52:48;5.17;;;4.63;;
4827;SDS011;2428;48.732;9.148;2023-09-07T09:55:13;4.53;;;3.90;;
4827;SDS011;2428;48.732;9.148;2023-09-07T09:57:47;4.80;;;4.23;;
4827;SDS011;2428;48.732;9.148;2023-09-07T10:00:13;4.43;;;4.03;;
4827;SDS011;2428;48.732;9.148;2023-09-07T10:02:42;5.50;;;4.37;;
4827;SDS011;2428;48.732;9.148;2023-09-07T10:05:22;4.47;;;3.90;;
4827;SDS011;2428;48.732;9.148;2023-09-07T10:10:17;5.80;;;4.73;;
4827;SDS011;2428;48.732;9.148;2023-09-07T10:12:44;3.87;;;3.17;;
4827;SDS011;2428;48.732;9.148;2023-09-07T10:15:22;5.43;;;4.47;;
4827;SDS011;2428;48.732;9.148;2023-09-07T10:23:33;5.33;;;4.83;;
4827;SDS011;2428;48.732;9.148;2023-09-07T10:25:59;4.63;;;4.13;;
4827;SDS011;2428;48.732;9.148;2023-09-07T10:28:25;5.13;;;4.37;;
4827;SDS011;2428;48.732;9.148;2023-09-07T10:30:57;4.70;;;4.20;;
4827;SDS011;2428;48.732;9.148;2023-09-07T10:33:28;4.00;;;3.63;;
4827;SDS011;2428;48.732;9.148;2023-09-07T10:35:54;4.40;;;3.20;;
4827;SDS011;2428;48.732;9.148;2023-09-07T10:38:20;4.10;;;3.70;;
4827;SDS011;2428;48.732;9.148;2023-09-07T10:40:47;5.17;;;4.03;;
4827;SDS011;2428;48.732;9.148;2023-09-07T10:43:12;3.73;;;3.43;;
4827;SDS011;2428;48.732;9.148;2023-09-07T10:45:38;4.40;;;4.00;;
4827;SDS011;2428;48.732;9.148;2023-09-07T10:48:04;4.60;;;4.00;;
4827;SDS011;2428;48.732;9.148;2023-09-07T10:50:30;4.10;;;3.70;;
4827;SDS011;2428;48.732;9.148;2023-09-07T10:53:06;4.00;;;3.70;;
4827;SDS011;2428;48.732;9.148;2023-09-07T10:55:36;4.77;;;3.87;;
4827;SDS011;2428;48.732;9.148;2023-09-07T10:58:03;4.10;;;3.60;;
4827;SDS011;2428;48.732;9.148;2023-09-07T11:00:29;4.53;;;3.50;;
4827;SDS011;2428;48.732;9.148;2023-09-07T11:02:55;3.63;;;3.30;;
4827;SDS011;2428;48.732;9.148;2023-09-07T11:05:20;4.10;;;3.70;;
4827;SDS011;2428;48.732;9.148;2023-09-07T11:07:46;4.13;;;3.73;;
4827;SDS011;2428;48.732;9.148;2023-09-07T11:10:11;3.80;;;3.50;;
4827;SDS011;2428;48.732;9.148;2023-09-07T11:12:38;4.20;;;3.70;;
4827;SDS011;2428;48.732;9.148;2023-09-07T11:15:05;3.50;;;3.20;;
4827;SDS011;2428;48.732;9.148;2023-09-07T11:17:36;3.30;;;2.93;;
4827;SDS011;2428;48.732;9.148;2023-09-07T11:20:05;4.47;;;4.07;;
4827;SDS011;2428;48.732;9.148;2023-09-07T11:22:32;4.03;;;3.70;;
4827;SDS011;2428;48.732;9.148;2023-09-07T11:24:59;3.90;;;3.50;;
4827;SDS011;2428;48.732;9.148;2023-09-07T11:27:28;4.53;;;4.07;;
4827;SDS011;2428;48.732;9.148;2023-09-07T11:29:55;3.33;;;3.03;;
4827;SDS011;2428;48.732;9.148;2023-09-07T11:32:21;3.30;;;3.00;;
4827;SDS011;2428;48.732;9.148;2023-09-07T11:34:50;3.67;;;3.37;;
4827;SDS011;2428;48.732;9.148;2023-09-07T11:37:23;3.93;;;3.63;;
4827;SDS011;2428;48.732;9.148;2023-09-07T11:39:50;4.50;;;3.70;;
4827;SDS011;2428;48.732;9.148;2023-09-07T11:42:15;4.00;;;3.60;;
4827;SDS011;2428;48.732;9.148;2023-09-07T11:44:41;3.97;;;3.60;;
4827;SDS011;2428;48.732;9.148;2023-09-07T11:47:06;4.10;;;3.70;;
4827;SDS011;2428;48.732;9.148;2023-09-07T11:49:32;4.60;;;4.20;;
4827;SDS011;2428;48.732;9.148;2023-09-07T11:51:58;6.77;;;4.10;;
4827;SDS011;2428;48.732;9.148;2023-09-07T11:54:24;4.60;;;4.20;;
4827;SDS011;2428;48.732;9.148;2023-09-07T11:56:50;4.90;;;4.40;;
4827;SDS011;2428;48.732;9.148;2023-09-07T11:59:15;4.77;;;4.30;;
4827;SDS011;2428;48.732;9.148;2023-09-07T12:01:42;4.67;;;4.27;;
4827;SDS011;2428;48.732;9.148;2023-09-07T12:04:08;7.57;;;3.90;;
4827;SDS011;2428;48.732;9.148;2023-09-07T12:06:34;4.63;;;4.00;;
4827;SDS011;2428;48.732;9.148;2023-09-07T12:09:04;4.57;;;4.13;;
4827;SDS011;2428;48.732;9.148;2023-09-07T12:11:34;4.63;;;4.00;;
4827;SDS011;2428;48.732;9.148;2023-09-07T12:14:00;6.10;;;4.60;;
4827;SDS011;2428;48.732;9.148;2023-09-07T12:16:26;5.30;;;4.80;;
4827;SDS011;2428;48.732;9.148;2023-09-07T12:18:53;5.57;;;4.60;;
4827;SDS011;2428;48.732;9.148;2023-09-07T12:21:19;5.80;;;4.50;;
4827;SDS011;2428;48.732;9.148;2023-09-07T12:23:45;4.97;;;4.50;;
4827;SDS011;2428;48.732;9.148;2023-09-07T12:26:11;5.17;;;3.90;;
4827;SDS011;2428;48.732;9.148;2023-09-07T12:28:37;4.60;;;4.20;;
4827;SDS011;2428;48.732;9.148;2023-09-07T12:31:03;6.23;;;4.20;;
4827;SDS011;2428;48.732;9.148;2023-09-07T12:33:30;4.43;;;4.03;;
4827;SDS011;2428;48.732;9.148;2023-09-07T12:35:55;4.67;;;4.27;;
4827;SDS011;2428;48.732;9.148;2023-09-07T12:38:21;5.20;;;3.97;;
4827;SDS011;2428;48.732;9.148;2023-09-07T12:40:52;5.20;;;4.70;;
4827;SDS011;2428;48.732;9.148;2023-09-07T12:43:18;6.00;;;4.90;;
4827;SDS011;2428;48.732;9.148;2023-09-07T12:45:43;4.93;;;4.40;;
4827;SDS011;2428;48.732;9.148;2023-09-07T12:48:10;4.80;;;4.30;;
4827;SDS011;2428;48.732;9.148;2023-09-07T12:50:35;6.13;;;4.37;;
4827;SDS011;2428;48.732;9.148;2023-09-07T12:53:01;4.27;;;3.87;;
4827;SDS011;2428;48.732;9.148;2023-09-07T12:55:27;4.40;;;4.00;;
4827;SDS011;2428;48.732;9.148;2023-09-07T12:57:54;5.93;;;4.87;;
4827;SDS011;2428;48.732;9.148;2023-09-07T13:00:20;4.27;;;3.87;;
4827;SDS011;2428;48.732;9.148;2023-09-07T13:02:46;5.07;;;4.40;;
4827;SDS011;2428;48.732;9.148;2023-09-07T13:05:11;4.27;;;3.87;;
4827;SDS011;2428;48.732;9.148;2023-09-07T13:07:37;4.20;;;3.80;;
4827;SDS011;2428;48.732;9.148;2023-09-07T13:10:03;4.40;;;4.00;;
4827;SDS011;2428;48.732;9.148;2023-09-07T13:12:31;4.17;;;3.70;;
4827;SDS011;2428;48.732;9.148;2023-09-07T13:14:57;4.67;;;4.20;;
4827;SDS011;2428;48.732;9.148;2023-09-07T13:17:23;4.73;;;4.13;;
4827;SDS011;2428;48.732;9.148;2023-09-07T13:19:49;5.27;;;4.70;;
4827;SDS011;2428;48.732;9.148;2023-09-07T13:22:14;4.33;;;3.93;;
4827;SDS011;2428;48.732;9.148;2023-09-07T13:24:42;4.53;;;4.10;;
4827;SDS011;2428;48.732;9.148;2023-09-07T13:27:07;5.20;;;4.03;;
4827;SDS011;2428;48.732;9.148;2023-09-07T13:29:35;4.63;;;4.23;;
4827;SDS011;2428;48.732;9.148;2023-09-07T13:32:00;4.53;;;3.77;;
4827;SDS011;2428;48.732;9.148;2023-09-07T13:34:26;5.90;;;4.10;;
4827;SDS011;2428;48.732;9.148;2023-09-07T13:36:52;4.13;;;3.73;;
4827;SDS011;2428;48.732;9.148;2023-09-07T13:39:18;5.87;;;4.50;;
4827;SDS011;2428;48.732;9.148;2023-09-07T13:41:44;4.13;;;3.70;;
4827;SDS011;2428;48.732;9.148;2023-09-07T13:44:09;4.20;;;3.80;;
4827;SDS011;2428;48.732;9.148;2023-09-07T13:46:36;4.70;;;4.20;;
4827;SDS011;2428;48.732;9.148;2023-09-07T13:49:01;4.10;;;3.70;;
4827;SDS011;2428;48.732;9.148;2023-09-07T13:51:27;4.80;;;3.83;;
4827;SDS011;2428;48.732;9.148;2023-09-07T13:53:52;4.77;;;3.97;;
4827;SDS011;2428;48.732;9.148;2023-09-07T13:56:18;5.93;;;3.87;;
4827;SDS011;2428;48.732;9.148;2023-09-07T13:58:44;4.10;;;3.70;;
4827;SDS011;2428;48.732;9.148;2023-09-07T14:01:09;4.23;;;3.20;;
4827;SDS011;2428;48.732;9.148;2023-09-07T14:03:35;4.13;;;3.73;;
4827;SDS011;2428;48.732;9.148;2023-09-07T14:06:01;4.27;;;3.87;;
4827;SDS011;2428;48.732;9.148;2023-09-07T14:08:27;3.30;;;3.00;;
4827;SDS011;2428;48.732;9.148;2023-09-07T14:10:55;4.13;;;3.83;;
4827;SDS011;2428;48.732;9.148;2023-09-07T14:13:21;3.80;;;3.13;;
4827;SDS011;2428;48.732;9.148;2023-09-07T14:15:46;3.57;;;3.27;;
4827;SDS011;2428;48.732;9.148;2023-09-07T14:18:12;5.20;;;3.67;;
4827;SDS011;2428;48.732;9.148;2023-09-07T14:20:37;3.80;;;3.50;;
4827;SDS011;2428;48.732;9.148;2023-09-07T14:23:03;3.40;;;2.83;;
4827;SDS011;2428;48.732;9.148;2023-09-07T14:25:29;3.60;;;3.30;;
4827;SDS011;2428;48.732;9.148;2023-09-07T14:27:55;3.43;;;3.10;;
4827;SDS011;2428;48.732;9.148;2023-09-07T14:30:20;3.33;;;3.03;;
4827;SDS011;2428;48.732;9.148;2023-09-07T14:32:46;5.33;;;3.80;;
4827;SDS011;2428;48.732;9.148;2023-09-07T14:35:13;4.67;;;3.87;;
4827;SDS011;2428;48.732;9.148;2023-09-07T14:37:42;4.03;;;3.33;;
4827;SDS011;2428;48.732;9.148;2023-09-07T14:40:08;3.53;;;3.10;;
4827;SDS011;2428;48.732;9.148;2023-09-07T14:42:34;4.67;;;3.53;;
4827;SDS011;2428;48.732;9.148;2023-09-07T14:45:01;4.20;;;2.90;;
4827;SDS011;2428;48.732;9.148;2023-09-07T14:47:28;5.30;;;3.90;;
4827;SDS011;2428;48.732;9.148;2023-09-07T14:49:54;4.77;;;3.23;;
4827;SDS011;2428;48.732;9.148;2023-09-07T14:52:19;3.70;;;3.13;;
4827;SDS011;2428;48.732;9.148;2023-09-07T14:54:48;3.63;;;3.30;;
4827;SDS011;2428;48.732;9.148;2023-09-07T14:57:14;3.47;;;3.17;;
4827;SDS011;2428;48.732;9.148;2023-09-07T14:59:39;3.17;;;2.70;;
4827;SDS011;2428;48.732;9.148;2023-09-07T15:02:08;4.40;;;3.37;;
4827;SDS011;2428;48.732;9.148;2023-09-07T15:04:33;4.47;;;3.07;;
4827;SDS011;2428;48.732;9.148;2023-09-07T15:07:00;3.47;;;3.17;;
4827;SDS011;2428;48.732;9.148;2023-09-07T15:09:26;3.97;;;3.67;;
4827;SDS011;2428;48.732;9.148;2023-09-07T15:11:51;4.33;;;3.50;;
4827;SDS011;2428;48.732;9.148;2023-09-07T15:14:18;4.30;;;3.43;;
4827;SDS011;2428;48.732;9.148;2023-09-07T15:16:44;3.67;;;3.20;;
4827;SDS011;2428;48.732;9.148;2023-09-07T15:19:09;3.57;;;3.20;;